Time;durP1;ratioP1;P1;durP2;ratioP2;P2;SDS_P1;SDS_P2;PMS_P1;PMS_P2;Temp;Humidity;BMP_temperature;BMP_pressure;BME280_temperature;BME280_humidity;BME280_pressure;Samples;Min_cycle;Max_cycle;Signal;HPM_P1;HPM_P2
2022/01/09 00:00:12;;;;;;;1.27;1.20;;;5.40;99.90;;;;;;5055705;28;20168;-69
2022/01/09 00:02:38;;;;;;;0.50;0.50;;;5.30;99.90;;;;;;5059321;28;20218;-70
2022/01/09 00:05:05;;;;;;;0.70;0.70;;;5.10;99.90;;;;;;5075440;28;20548;-69
2022/01/09 00:07:31;;;;;;;2.17;0.63;;;5.00;99.90;;;;;;5075537;28;20462;-69
2022/01/09 00:09:56;;;;;;;1.13;0.50;;;5.00;99.90;;;;;;5076573;28;20539;-70
2022/01/09 00:12:23;;;;;;;0.60;0.60;;;4.90;99.90;;;;;;5075075;28;20165;-68
2022/01/09 00:14:49;;;;;;;0.68;0.68;;;5.00;99.90;;;;;;5075156;28;20447;-69
2022/01/09 00:17:15;;;;;;;0.70;0.70;;;4.90;99.90;;;;;;5075287;28;20200;-68
2022/01/09 00:19:40;;;;;;;0.70;0.60;;;4.90;99.90;;;;;;5074045;28;20196;-69
2022/01/09 00:22:07;;;;;;;0.50;0.50;;;4.90;99.90;;;;;;5074693;28;20411;-68
2022/01/09 00:24:33;;;;;;;0.80;0.80;;;5.00;99.90;;;;;;5075043;28;20168;-69
2022/01/09 00:26:59;;;;;;;0.40;0.30;;;5.00;99.90;;;;;;5075053;28;20673;-68
2022/01/09 00:29:25;;;;;;;0.57;0.57;;;;;;;;;;5075025;28;20169;-69
2022/01/09 00:31:50;;;;;;;0.82;0.60;;;5.10;99.90;;;;;;5074602;28;20438;-70
2022/01/09 00:34:16;;;;;;;1.37;0.80;;;5.10;99.90;;;;;;5074788;28;20281;-69
2022/01/09 00:36:42;;;;;;;0.83;0.83;;;5.20;99.90;;;;;;5075014;28;20212;-70
2022/01/09 00:39:07;;;;;;;0.87;0.83;;;5.20;99.90;;;;;;5074871;28;20630;-68
2022/01/09 00:41:33;;;;;;;2.20;0.50;;;5.30;99.90;;;;;;5074368;28;20275;-69
2022/01/09 00:43:59;;;;;;;0.40;0.40;;;5.30;99.90;;;;;;5074675;28;20176;-70
2022/01/09 00:46:24;;;;;;;0.40;0.40;;;5.30;99.90;;;;;;5072344;28;20218;-68
2022/01/09 00:48:50;;;;;;;0.37;0.37;;;5.40;99.90;;;;;;5074592;28;20226;-69
2022/01/09 00:51:16;;;;;;;0.40;0.40;;;5.50;99.90;;;;;;5074234;28;20185;-69
2022/01/09 00:53:42;;;;;;;0.30;0.30;;;5.50;99.90;;;;;;5074347;28;20259;-69
2022/01/09 00:56:08;;;;;;;0.30;0.30;;;;;;;;;;5074704;28;20399;-70
2022/01/09 00:58:33;;;;;;;0.73;0.73;;;5.50;99.90;;;;;;5074406;28;20404;-70
2022/01/09 01:00:59;;;;;;;0.40;0.33;;;5.60;99.90;;;;;;5074292;28;20169;-69
2022/01/09 01:03:25;;;;;;;0.50;0.30;;;5.60;99.90;;;;;;5073901;28;20749;-71
2022/01/09 01:05:51;;;;;;;0.40;0.40;;;5.60;99.90;;;;;;5074181;28;20205;-69
2022/01/09 01:08:17;;;;;;;0.30;0.30;;;5.60;99.90;;;;;;5072603;28;20235;-70
2022/01/09 01:10:43;;;;;;;0.63;0.63;;;5.60;99.90;;;;;;5072831;28;20423;-70
2022/01/09 01:13:09;;;;;;;0.30;0.30;;;5.70;99.90;;;;;;5073806;28;20172;-69
2022/01/09 01:15:35;;;;;;;0.40;0.40;;;5.60;99.90;;;;;;5074119;28;20231;-68
2022/01/09 01:18:00;;;;;;;1.50;0.50;;;5.60;99.90;;;;;;5073989;28;20246;-69
2022/01/09 01:20:27;;;;;;;0.30;0.20;;;5.60;99.90;;;;;;5073986;28;20171;-69
2022/01/09 01:22:53;;;;;;;0.30;0.30;;;5.60;99.90;;;;;;5073461;28;20529;-68
2022/01/09 01:25:20;;;;;;;0.30;0.30;;;5.60;99.90;;;;;;5073955;28;20174;-68
2022/01/09 01:27:46;;;;;;;0.30;0.30;;;5.60;99.90;;;;;;5073728;28;20677;-69
2022/01/09 01:30:13;;;;;;;0.30;0.20;;;5.80;99.90;;;;;;5073947;28;20512;-68
2022/01/09 01:32:40;;;;;;;0.45;0.35;;;5.70;99.90;;;;;;5073255;28;20169;-68
2022/01/09 01:35:06;;;;;;;0.50;0.50;;;5.70;99.90;;;;;;5073690;28;20184;-68
2022/01/09 01:37:32;;;;;;;0.40;0.40;;;5.70;99.90;;;;;;5073559;28;20221;-69
2022/01/09 01:39:58;;;;;;;0.30;0.30;;;5.70;99.90;;;;;;5072335;28;20197;-68
2022/01/09 01:42:24;;;;;;;0.63;0.63;;;5.80;99.90;;;;;;5071863;28;20411;-70
2022/01/09 01:44:50;;;;;;;0.30;0.30;;;5.80;99.90;;;;;;5073656;28;20171;-69
2022/01/09 01:47:18;;;;;;;0.60;0.40;;;5.80;99.90;;;;;;5073446;28;20185;-69
2022/01/09 01:49:44;;;;;;;0.30;0.30;;;5.80;99.90;;;;;;5073671;28;20170;-70
2022/01/09 01:52:10;;;;;;;0.40;0.40;;;5.80;99.90;;;;;;5073102;28;20252;-70
2022/01/09 01:54:39;;;;;;;0.40;0.40;;;5.80;99.90;;;;;;5073493;28;20500;-68
2022/01/09 01:57:05;;;;;;;0.30;0.20;;;5.90;99.90;;;;;;5072785;28;20265;-68
2022/01/09 01:59:31;;;;;;;2.05;1.10;;;5.90;99.90;;;;;;5073433;28;20171;-69
2022/01/09 02:01:58;;;;;;;0.40;0.40;;;6.00;99.90;;;;;;5073087;28;20173;-70
2022/01/09 02:04:24;;;;;;;0.35;0.35;;;6.00;99.90;;;;;;5054420;28;20516;-70
2022/01/09 02:06:50;;;;;;;0.40;0.40;;;6.00;99.90;;;;;;5053161;28;20279;-71
2022/01/09 02:09:17;;;;;;;1.02;0.50;;;6.00;99.90;;;;;;5053129;28;20173;-71
2022/01/09 02:11:42;;;;;;;0.50;0.50;;;6.00;99.90;;;;;;5052783;28;20192;-71
2022/01/09 02:14:08;;;;;;;0.40;0.30;;;6.00;99.90;;;;;;5053280;28;20189;-71
2022/01/09 02:16:43;;;;;;;0.30;0.30;;;6.00;99.90;;;;;;5053411;28;20280;-70
2022/01/09 02:19:13;;;;;;;0.40;0.40;;;6.00;99.90;;;;;;5053341;28;20173;-69
2022/01/09 02:21:46;;;;;;;0.30;0.30;;;6.10;99.90;;;;;;5052807;28;20167;-71
2022/01/09 02:24:13;;;;;;;0.40;0.40;;;6.10;99.90;;;;;;5053386;28;20697;-70
2022/01/09 02:26:39;;;;;;;0.38;0.38;;;6.10;99.90;;;;;;5053581;28;20206;-70
2022/01/09 02:29:05;;;;;;;0.50;0.50;;;6.20;99.90;;;;;;5053408;28;20172;-68
2022/01/09 02:31:33;;;;;;;0.30;0.30;;;6.20;99.90;;;;;;5052887;28;20260;-69
2022/01/09 02:33:59;;;;;;;0.40;0.40;;;6.20;99.90;;;;;;5052982;28;20448;-70
2022/01/09 02:36:24;;;;;;;0.40;0.40;;;6.20;99.90;;;;;;5053200;28;20194;-71
2022/01/09 02:38:50;;;;;;;0.67;0.67;;;6.20;99.90;;;;;;5053065;28;20404;-71
2022/01/09 02:41:16;;;;;;;0.30;0.30;;;6.20;99.90;;;;;;5052839;28;20196;-70
2022/01/09 02:43:42;;;;;;;0.37;0.37;;;6.20;99.90;;;;;;5053333;28;20165;-69
2022/01/09 02:48:38;;;;;;;0.40;0.40;;;6.30;99.90;;;;;;5052962;28;20514;-67
2022/01/09 02:51:14;;;;;;;0.57;0.45;;;6.20;99.90;;;;;;5052683;28;20215;-68
2022/01/09 02:53:44;;;;;;;0.30;0.30;;;6.30;99.90;;;;;;5052914;28;20162;-70
2022/01/09 02:56:10;;;;;;;0.30;0.30;;;6.20;99.90;;;;;;5052755;28;20210;-72
2022/01/09 02:58:37;;;;;;;0.40;0.30;;;6.20;99.90;;;;;;5052883;28;20165;-70
2022/01/09 03:01:05;;;;;;;0.60;0.60;;;6.20;99.90;;;;;;5052600;28;20166;-70
2022/01/09 03:03:30;;;;;;;0.40;0.40;;;6.20;99.90;;;;;;5064061;28;20231;-72
2022/01/09 03:05:56;;;;;;;0.50;0.50;;;6.20;99.90;;;;;;5072903;28;20690;-71
2022/01/09 03:08:22;;;;;;;0.40;0.40;;;6.20;99.90;;;;;;5073153;28;20199;-68
2022/01/09 03:10:48;;;;;;;0.30;0.30;;;6.20;99.90;;;;;;5075277;28;20226;-68
2022/01/09 03:13:14;;;;;;;0.40;0.40;;;6.20;99.90;;;;;;5075998;28;20181;-70
2022/01/09 03:15:40;;;;;;;0.43;0.43;;;6.20;99.90;;;;;;5076246;28;20205;-70
2022/01/09 03:18:05;;;;;;;1.00;0.47;;;6.20;99.90;;;;;;5076258;28;20189;-70
2022/01/09 03:20:31;;;;;;;0.50;0.40;;;6.30;99.90;;;;;;5076280;28;20524;-69
2022/01/09 03:22:58;;;;;;;0.30;0.30;;;6.30;99.90;;;;;;5075982;28;20170;-69
2022/01/09 03:25:25;;;;;;;0.45;0.45;;;6.30;99.90;;;;;;5076293;28;20796;-69
2022/01/09 03:27:52;;;;;;;0.30;0.30;;;6.30;99.90;;;;;;5076200;28;20198;-69
2022/01/09 03:30:20;;;;;;;0.40;0.40;;;6.30;99.90;;;;;;5076031;28;20196;-68
2022/01/09 03:32:47;;;;;;;0.30;0.30;;;6.30;99.90;;;;;;5075902;28;20170;-70
2022/01/09 03:35:15;;;;;;;2.05;0.50;;;6.30;99.90;;;;;;5076015;28;20260;-69
2022/01/09 03:37:42;;;;;;;0.30;0.30;;;6.20;99.90;;;;;;5075912;28;20182;-70
2022/01/09 03:40:11;;;;;;;0.52;0.52;;;6.20;99.90;;;;;;5075734;28;20165;-70
2022/01/09 03:42:37;;;;;;;0.50;0.50;;;6.20;99.90;;;;;;5075520;28;20173;-69
2022/01/09 03:45:04;;;;;;;0.30;0.30;;;6.20;99.90;;;;;;5075836;28;20713;-69
2022/01/09 03:47:30;;;;;;;0.38;0.38;;;6.20;99.90;;;;;;5075805;28;20197;-69
2022/01/09 03:49:56;;;;;;;0.33;0.33;;;6.20;99.90;;;;;;5075888;28;20178;-68
2022/01/09 03:52:27;;;;;;;0.40;0.30;;;6.20;99.90;;;;;;5075355;28;20446;-67
2022/01/09 03:54:55;;;;;;;0.30;0.30;;;6.20;99.90;;;;;;5075726;28;20192;-68
2022/01/09 03:57:21;;;;;;;0.52;0.50;;;6.10;99.90;;;;;;5074309;28;20188;-68
2022/01/09 03:59:47;;;;;;;0.30;0.30;;;6.10;99.90;;;;;;5075591;28;20168;-68
2022/01/09 04:02:13;;;;;;;0.30;0.30;;;6.10;99.90;;;;;;5074341;28;20167;-68
2022/01/09 04:04:38;;;;;;;0.50;0.50;;;6.10;99.90;;;;;;5055868;28;20460;-68
2022/01/09 04:07:04;;;;;;;0.50;0.40;;;6.10;99.90;;;;;;5055353;28;20459;-70
2022/01/09 04:09:40;;;;;;;0.30;0.30;;;6.10;99.90;;;;;;5055782;28;20677;-71
2022/01/09 04:12:14;;;;;;;0.40;0.40;;;6.10;99.90;;;;;;5053802;28;20417;-69
2022/01/09 04:14:41;;;;;;;0.60;0.40;;;6.10;99.90;;;;;;5055206;28;20604;-69
2022/01/09 04:17:12;;;;;;;0.50;0.43;;;6.10;99.90;;;;;;5055174;28;20668;-68
2022/01/09 04:19:38;;;;;;;0.35;0.35;;;6.20;99.90;;;;;;5055320;28;20174;-68
2022/01/09 04:22:03;;;;;;;0.40;0.30;;;6.20;99.90;;;;;;5054672;28;20532;-68
2022/01/09 04:24:29;;;;;;;0.30;0.30;;;6.10;99.90;;;;;;5055209;28;20175;-68
2022/01/09 04:26:55;;;;;;;0.40;0.40;;;6.10;99.90;;;;;;5054984;28;20421;-68
2022/01/09 04:29:20;;;;;;;0.40;0.40;;;6.10;99.90;;;;;;5055064;28;20170;-69
2022/01/09 04:31:46;;;;;;;0.60;0.50;;;6.10;99.90;;;;;;5054792;28;20200;-69
2022/01/09 04:34:12;;;;;;;0.50;0.30;;;6.00;99.90;;;;;;5055010;28;20669;-69
2022/01/09 04:36:37;;;;;;;0.30;0.30;;;6.00;99.90;;;;;;5055449;28;20189;-69
2022/01/09 04:39:03;;;;;;;0.93;0.40;;;5.90;99.90;;;;;;5054832;28;20228;-69
2022/01/09 04:41:29;;;;;;;0.30;0.30;;;5.90;99.90;;;;;;5054387;28;20292;-68
2022/01/09 04:43:54;;;;;;;0.40;0.40;;;5.90;99.90;;;;;;5054732;28;20248;-68
2022/01/09 04:46:30;;;;;;;0.47;0.47;;;5.90;99.90;;;;;;5054621;28;20166;-68
2022/01/09 04:48:56;;;;;;;0.30;0.30;;;5.80;99.90;;;;;;5054778;28;20646;-68
2022/01/09 04:51:22;;;;;;;0.30;0.20;;;5.80;99.90;;;;;;5054189;28;20166;-69
2022/01/09 04:53:48;;;;;;;0.30;0.30;;;5.80;99.90;;;;;;5054629;28;20166;-68
2022/01/09 04:56:14;;;;;;;0.30;0.30;;;5.70;99.90;;;;;;5054533;28;20227;-68
2022/01/09 04:58:40;;;;;;;0.30;0.30;;;5.70;99.90;;;;;;5054453;28;20174;-68
2022/01/09 05:01:05;;;;;;;0.40;0.37;;;5.70;99.90;;;;;;5054164;28;20227;-68
2022/01/09 05:03:31;;;;;;;0.30;0.30;;;5.70;99.90;;;;;;5065699;28;20519;-69
2022/01/09 05:05:57;;;;;;;0.30;0.30;;;5.70;99.90;;;;;;5074230;28;20207;-68
2022/01/09 05:08:22;;;;;;;0.30;0.30;;;5.60;99.90;;;;;;5074090;28;20709;-69
2022/01/09 05:10:48;;;;;;;0.30;0.30;;;5.50;99.90;;;;;;5074430;28;20249;-69
2022/01/09 05:13:14;;;;;;;0.30;0.30;;;5.40;99.90;;;;;;5073827;28;20175;-69
2022/01/09 05:15:39;;;;;;;0.40;0.40;;;5.40;99.90;;;;;;5073048;28;20620;-69
2022/01/09 05:18:12;;;;;;;0.77;0.30;;;5.30;99.90;;;;;;5073859;28;20184;-67
2022/01/09 05:20:38;;;;;;;0.35;0.35;;;5.30;99.90;;;;;;5073893;28;20180;-68
2022/01/09 05:23:03;;;;;;;0.43;0.30;;;5.20;99.90;;;;;;5073610;28;20552;-69
2022/01/09 05:25:29;;;;;;;0.50;0.50;;;5.20;99.90;;;;;;5073748;28;20188;-69
2022/01/09 05:27:55;;;;;;;0.33;0.33;;;5.20;99.90;;;;;;5073847;28;20608;-70
2022/01/09 05:30:20;;;;;;;0.30;0.30;;;5.10;99.90;;;;;;5073951;28;20404;-69
2022/01/09 05:32:46;;;;;;;0.30;0.30;;;5.10;99.90;;;;;;5072972;28;20171;-69
2022/01/09 05:35:12;;;;;;;0.30;0.30;;;5.00;99.90;;;;;;5073698;28;20282;-68
2022/01/09 05:37:38;;;;;;;0.47;0.33;;;5.00;99.90;;;;;;5072301;28;20431;-68
2022/01/09 05:40:04;;;;;;;0.30;0.30;;;5.00;99.90;;;;;;5073928;28;20235;-68
2022/01/09 05:42:30;;;;;;;0.30;0.30;;;4.90;99.90;;;;;;5073418;28;20482;-68
2022/01/09 05:44:55;;;;;;;0.43;0.43;;;4.90;99.90;;;;;;5073794;28;20567;-69
2022/01/09 05:47:21;;;;;;;0.30;0.30;;;4.80;99.90;;;;;;5073330;28;20202;-68
2022/01/09 05:49:47;;;;;;;0.30;0.20;;;4.80;99.90;;;;;;5072263;28;20180;-68
2022/01/09 05:52:12;;;;;;;0.30;0.30;;;4.80;99.90;;;;;;5073336;28;20169;-68
2022/01/09 05:54:38;;;;;;;0.30;0.30;;;4.70;99.90;;;;;;5072830;28;20275;-69
2022/01/09 05:57:04;;;;;;;0.40;0.40;;;4.70;99.90;;;;;;5073679;28;20191;-69
2022/01/09 05:59:30;;;;;;;0.30;0.30;;;4.60;99.90;;;;;;5073327;28;20161;-69
2022/01/09 06:01:57;;;;;;;0.43;0.43;;;4.60;99.90;;;;;;5071900;28;20169;-70
2022/01/09 06:04:23;;;;;;;0.32;0.32;;;4.60;99.90;;;;;;5054571;28;20284;-68
2022/01/09 06:06:49;;;;;;;0.20;0.20;;;4.60;99.90;;;;;;5053508;28;20197;-68
2022/01/09 06:09:15;;;;;;;0.60;0.60;;;4.60;99.90;;;;;;5053227;28;20169;-68
2022/01/09 06:11:41;;;;;;;0.30;0.30;;;4.60;99.90;;;;;;5052922;28;20169;-69
2022/01/09 06:14:07;;;;;;;2.50;0.50;;;4.60;99.90;;;;;;5053305;28;20266;-67
2022/01/09 06:16:32;;;;;;;0.30;0.30;;;4.60;99.90;;;;;;5053043;28;20529;-69
2022/01/09 06:18:58;;;;;;;0.30;0.30;;;4.60;99.90;;;;;;5053302;28;20627;-68
2022/01/09 06:21:26;;;;;;;0.30;0.30;;;4.60;99.90;;;;;;5052822;28;20184;-68
2022/01/09 06:23:52;;;;;;;0.30;0.30;;;4.60;99.90;;;;;;5053165;28;20930;-69
2022/01/09 06:26:18;;;;;;;0.32;0.32;;;4.60;99.90;;;;;;5053287;28;20248;-68
2022/01/09 06:28:44;;;;;;;0.50;0.50;;;4.70;99.90;;;;;;5053308;28;20244;-67
2022/01/09 06:31:09;;;;;;;0.80;0.53;;;4.60;99.90;;;;;;5051463;28;20197;-68
2022/01/09 06:33:35;;;;;;;1.03;0.40;;;4.70;99.90;;;;;;5053175;28;20457;-69
2022/01/09 06:36:00;;;;;;;0.30;0.30;;;4.70;99.90;;;;;;5053160;28;20208;-68
2022/01/09 06:38:26;;;;;;;0.30;0.30;;;4.60;99.90;;;;;;5053288;28;20272;-69
2022/01/09 06:40:52;;;;;;;0.83;0.63;;;4.60;99.90;;;;;;5053229;28;20165;-69
2022/01/09 06:43:18;;;;;;;0.30;0.30;;;4.60;99.90;;;;;;5052911;28;20404;-68
2022/01/09 06:45:43;;;;;;;0.30;0.30;;;4.60;99.90;;;;;;5057140;28;20196;-69
2022/01/09 06:48:09;;;;;;;0.40;0.40;;;4.70;99.90;;;;;;5056848;28;20189;-68
2022/01/09 06:50:35;;;;;;;0.40;0.33;;;4.70;99.90;;;;;;5056979;28;20399;-68
2022/01/09 06:53:01;;;;;;;0.40;0.40;;;4.60;99.90;;;;;;5056642;28;20173;-69
2022/01/09 06:55:27;;;;;;;0.40;0.40;;;4.70;99.90;;;;;;5056872;28;20201;-67
2022/01/09 06:57:53;;;;;;;0.40;0.40;;;4.70;99.90;;;;;;5056839;28;20182;-67
2022/01/09 07:00:20;;;;;;;4.10;1.13;;;4.70;99.90;;;;;;5056856;28;20479;-67
2022/01/09 07:02:46;;;;;;;0.43;0.43;;;4.60;99.90;;;;;;5061105;28;20176;-67
2022/01/09 07:05:13;;;;;;;0.38;0.38;;;4.60;99.90;;;;;;5076754;28;20203;-68
2022/01/09 07:07:38;;;;;;;0.50;0.50;;;4.60;99.90;;;;;;5076130;28;20197;-66
2022/01/09 07:10:05;;;;;;;0.40;0.40;;;4.60;99.90;;;;;;5076456;28;20177;-69
2022/01/09 07:12:31;;;;;;;0.30;0.30;;;4.60;99.90;;;;;;5076073;28;20530;-70
2022/01/09 07:14:56;;;;;;;0.40;0.40;;;4.60;99.90;;;;;;5076304;28;20193;-69
2022/01/09 07:17:22;;;;;;;0.40;0.40;;;4.60;99.90;;;;;;5076503;28;20422;-68
2022/01/09 07:19:48;;;;;;;0.40;0.40;;;4.60;99.90;;;;;;5076422;28;20180;-68
2022/01/09 07:22:13;;;;;;;0.40;0.40;;;4.60;99.90;;;;;;5076121;28;20172;-72
2022/01/09 07:24:39;;;;;;;0.90;0.50;;;4.60;99.90;;;;;;5076271;28;20191;-71
2022/01/09 07:27:05;;;;;;;0.33;0.33;;;4.60;99.90;;;;;;5076575;28;20842;-72
2022/01/09 07:29:31;;;;;;;0.30;0.30;;;4.50;99.90;;;;;;5076281;28;20656;-69
2022/01/09 07:31:56;;;;;;;0.83;0.77;;;4.50;99.90;;;;;;5075855;28;20211;-69
2022/01/09 07:34:22;;;;;;;0.70;0.50;;;4.50;99.90;;;;;;5076276;28;20196;-70
2022/01/09 07:36:48;;;;;;;0.47;0.47;;;4.60;99.90;;;;;;5074899;28;20185;-71
2022/01/09 07:39:14;;;;;;;1.27;1.20;;;4.50;99.90;;;;;;5076138;28;20192;-70
2022/01/09 07:41:41;;;;;;;0.50;0.50;;;4.50;99.90;;;;;;5075517;28;20902;-70
2022/01/09 07:44:07;;;;;;;1.17;0.77;;;4.50;99.90;;;;;;5075895;28;20169;-70
2022/01/09 07:46:32;;;;;;;0.50;0.50;;;4.60;99.90;;;;;;5075800;28;20673;-69
2022/01/09 07:48:58;;;;;;;2.50;2.30;;;4.60;99.90;;;;;;5075830;28;20520;-69
2022/01/09 07:51:24;;;;;;;0.53;0.50;;;4.60;99.90;;;;;;5075375;28;20180;-70
2022/01/09 07:53:49;;;;;;;0.70;0.70;;;4.70;99.90;;;;;;5075593;28;20173;-68
2022/01/09 07:56:15;;;;;;;2.87;0.67;;;4.70;99.90;;;;;;5074891;28;20161;-67
2022/01/09 07:58:41;;;;;;;0.40;0.40;;;4.70;99.90;;;;;;5075491;28;20170;-69
2022/01/09 08:01:06;;;;;;;0.70;0.70;;;4.80;99.90;;;;;;5075375;28;20184;-69
2022/01/09 08:03:33;;;;;;;0.60;0.50;;;4.80;99.90;;;;;;5063413;28;20186;-68
2022/01/09 08:05:59;;;;;;;2.70;0.60;;;4.90;99.90;;;;;;5055618;28;20175;-71
2022/01/09 08:08:25;;;;;;;1.27;1.17;;;4.90;99.90;;;;;;5055477;28;20195;-67
2022/01/09 08:10:52;;;;;;;1.17;0.93;;;5.00;99.90;;;;;;5055609;28;20180;-67
2022/01/09 08:13:18;;;;;;;0.57;0.57;;;5.10;99.90;;;;;;5054895;28;20176;-70
2022/01/09 08:15:43;;;;;;;1.07;1.07;;;5.10;99.90;;;;;;5055231;28;20542;-71
2022/01/09 08:18:09;;;;;;;1.23;0.60;;;5.10;99.90;;;;;;5054972;28;20423;-70
2022/01/09 08:20:35;;;;;;;0.90;0.90;;;5.10;99.90;;;;;;5054725;28;20223;-70
2022/01/09 08:23:00;;;;;;;0.97;0.90;;;5.10;99.90;;;;;;5054552;28;20170;-72
2022/01/09 08:25:26;;;;;;;1.07;0.50;;;5.10;99.90;;;;;;5053878;28;20647;-68
2022/01/09 08:27:52;;;;;;;0.53;0.53;;;5.10;99.90;;;;;;5054265;28;20190;-70
2022/01/09 08:30:21;;;;;;;0.33;0.33;;;5.10;99.90;;;;;;5054364;28;20165;-70
2022/01/09 08:32:48;;;;;;;4.70;0.93;;;5.20;99.90;;;;;;5054103;28;20411;-70
2022/01/09 08:35:14;;;;;;;0.70;0.70;;;5.20;99.90;;;;;;5054894;28;20190;-70
2022/01/09 08:37:42;;;;;;;4.68;1.30;;;5.20;99.90;;;;;;5053428;28;20194;-71
2022/01/09 08:40:12;;;;;;;0.95;0.68;;;5.30;99.90;;;;;;5054704;28;20170;-71
2022/01/09 08:42:40;;;;;;;0.63;0.63;;;5.40;99.90;;;;;;5053918;28;20169;-70
2022/01/09 08:45:06;;;;;;;1.52;0.95;;;5.40;99.90;;;;;;5052203;28;20197;-71
2022/01/09 08:47:35;;;;;;;0.73;0.73;;;5.50;99.90;;;;;;5053548;28;20190;-70
2022/01/09 08:50:02;;;;;;;0.60;0.60;;;5.60;99.90;;;;;;5053249;28;20194;-71
2022/01/09 08:52:28;;;;;;;0.82;0.80;;;5.70;99.90;;;;;;5053116;28;20175;-71
2022/01/09 08:54:53;;;;;;;6.73;1.60;;;5.80;99.90;;;;;;5053323;28;20213;-70
2022/01/09 08:57:19;;;;;;;0.60;0.60;;;5.90;99.90;;;;;;5053489;28;20223;-71
2022/01/09 08:59:45;;;;;;;2.10;1.87;;;6.00;99.90;;;;;;5054609;28;20202;-69
2022/01/09 09:02:10;;;;;;;0.53;0.53;;;6.00;99.90;;;;;;5054129;28;20172;-70
2022/01/09 09:04:38;;;;;;;2.93;0.80;;;6.10;99.90;;;;;;5074044;28;20562;-70
2022/01/09 09:07:04;;;;;;;2.25;0.73;;;6.20;99.90;;;;;;5073583;28;20194;-71
2022/01/09 09:09:29;;;;;;;2.70;1.10;;;6.30;99.90;;;;;;5073356;28;20224;-69
2022/01/09 09:11:55;;;;;;;0.97;0.77;;;6.30;99.90;;;;;;5072609;28;20535;-71
2022/01/09 09:14:22;;;;;;;0.60;0.60;;;6.40;99.90;;;;;;5074141;28;20191;-70
2022/01/09 09:16:47;;;;;;;1.88;1.08;;;6.50;99.90;;;;;;5072951;28;20189;-71
2022/01/09 09:19:13;;;;;;;2.00;0.60;;;6.50;99.90;;;;;;5073977;28;20228;-71
2022/01/09 09:21:39;;;;;;;3.20;0.70;;;6.70;99.90;;;;;;5073631;28;20418;-70
2022/01/09 09:24:05;;;;;;;7.00;1.07;;;6.70;99.90;;;;;;5074239;28;20577;-70
2022/01/09 09:26:30;;;;;;;0.57;0.50;;;6.80;99.90;;;;;;5073692;28;20198;-71
2022/01/09 09:28:56;;;;;;;0.73;0.50;;;6.90;99.90;;;;;;5074311;28;20449;-70
2022/01/09 09:31:22;;;;;;;0.50;0.50;;;6.80;99.90;;;;;;5073525;28;20182;-70
2022/01/09 09:33:47;;;;;;;0.40;0.40;;;6.80;99.90;;;;;;5073620;28;20167;-71
2022/01/09 09:36:13;;;;;;;3.93;1.73;;;6.80;99.90;;;;;;5073246;28;20639;-70
2022/01/09 09:38:39;;;;;;;3.05;1.10;;;6.80;99.90;;;;;;5073570;28;20165;-71
2022/01/09 09:41:05;;;;;;;1.17;0.40;;;6.80;99.90;;;;;;5073233;28;20245;-73
2022/01/09 09:43:31;;;;;;;0.67;0.53;;;6.70;99.90;;;;;;5073755;28;20173;-71
2022/01/09 09:45:57;;;;;;;2.53;0.77;;;6.60;99.90;;;;;;5073672;28;20763;-70
2022/01/09 09:48:22;;;;;;;0.83;0.83;;;6.60;99.90;;;;;;5073550;28;20187;-71
2022/01/09 09:50:48;;;;;;;2.30;0.50;;;6.50;99.90;;;;;;5073602;28;20164;-72
2022/01/09 09:53:14;;;;;;;0.70;0.70;;;6.50;99.90;;;;;;5072104;28;20418;-69
2022/01/09 09:55:41;;;;;;;3.40;0.73;;;6.60;99.90;;;;;;5073352;28;20203;-71
2022/01/09 09:58:06;;;;;;;2.53;0.80;;;6.70;99.90;;;;;;5073347;28;20423;-70
2022/01/09 10:00:33;;;;;;;1.20;0.73;;;6.80;99.90;;;;;;5073404;28;20184;-70
2022/01/09 10:03:01;;;;;;;3.85;1.05;;;7.00;99.90;;;;;;5065669;28;20170;-71
2022/01/09 10:05:32;;;;;;;2.58;1.00;;;7.10;99.90;;;;;;5052153;28;20188;-70
2022/01/09 10:08:06;;;;;;;1.15;0.63;;;7.30;99.90;;;;;;5051902;28;20193;-71
2022/01/09 10:10:34;;;;;;;0.77;0.77;;;7.50;99.90;;;;;;5051920;28;20537;-70
2022/01/09 10:13:13;;;;;;;1.40;1.15;;;7.60;99.90;;;;;;5052800;28;20176;-70
2022/01/09 10:15:48;;;;;;;4.45;0.90;;;7.70;99.90;;;;;;5051846;28;20200;-71
2022/01/09 10:18:44;;;;;;;1.42;0.80;;;7.70;99.90;;;;;;5053828;28;20193;-71
2022/01/09 10:21:16;;;;;;;1.27;0.90;;;7.80;99.90;;;;;;5059720;28;20516;-71
2022/01/09 10:24:01;;;;;;;0.80;0.77;;;7.60;99.90;;;;;;5060207;28;20165;-71
2022/01/09 10:26:29;;;;;;;1.52;0.85;;;7.50;99.90;;;;;;5059830;28;20202;-72
2022/01/09 10:28:55;;;;;;;1.80;0.70;;;7.50;99.90;;;;;;5059888;28;20161;-71
2022/01/09 10:31:21;;;;;;;0.63;0.63;;;7.40;99.90;;;;;;5059583;28;20716;-72
2022/01/09 10:34:06;;;;;;;1.05;0.68;;;7.40;99.90;;;;;;5059595;28;20216;-71
2022/01/09 10:36:33;;;;;;;1.52;1.52;;;7.30;99.90;;;;;;5059628;28;20204;-71
2022/01/09 10:39:07;;;;;;;1.05;0.77;;;7.20;99.90;;;;;;5059678;28;20168;-72
2022/01/09 10:42:03;;;;;;;0.73;0.40;;;7.10;99.90;;;;;;5059123;28;20591;-70
2022/01/09 10:44:38;;;;;;;0.40;0.40;;;7.00;99.90;;;;;;5059573;28;20192;-70
2022/01/09 10:47:10;;;;;;;0.70;0.70;;;6.90;99.90;;;;;;5059381;28;20581;-71
2022/01/09 10:49:52;;;;;;;0.40;0.40;;;6.80;99.90;;;;;;5059604;28;20168;-70
2022/01/09 10:52:26;;;;;;;0.88;0.63;;;6.70;99.90;;;;;;5059149;28;20179;-72
2022/01/09 10:54:54;;;;;;;0.80;0.80;;;6.40;99.90;;;;;;5059592;28;20204;-72
2022/01/09 10:57:25;;;;;;;2.05;0.70;;;6.30;99.90;;;;;;5059336;28;20317;-71
2022/01/09 10:59:51;;;;;;;0.70;0.70;;;6.20;99.90;;;;;;5059375;28;20217;-71
2022/01/09 11:02:18;;;;;;;4.97;1.63;;;6.20;99.90;;;;;;5060196;28;20169;-71
2022/01/09 11:04:48;;;;;;;3.33;0.95;;;6.10;99.90;;;;;;5079420;28;20196;-71
2022/01/09 11:07:14;;;;;;;0.93;0.93;;;6.10;99.90;;;;;;5077913;28;20215;-72
2022/01/09 11:09:44;;;;;;;1.45;1.27;;;6.20;99.90;;;;;;5079564;28;20208;-72
2022/01/09 11:12:10;;;;;;;2.05;0.90;;;6.20;99.90;;;;;;5077594;28;20172;-71
2022/01/09 11:14:40;;;;;;;1.50;1.40;;;6.30;99.90;;;;;;5077854;28;20564;-71
2022/01/09 11:17:08;;;;;;;1.58;0.73;;;6.70;99.90;;;;;;5079282;28;20180;-72
2022/01/09 11:19:34;;;;;;;2.72;1.00;;;7.00;99.90;;;;;;5079428;28;20216;-71
2022/01/09 11:22:03;;;;;;;1.15;0.55;;;7.30;99.90;;;;;;5078986;28;20268;-72
2022/01/09 11:25:08;;;;;;;0.40;0.40;;;7.50;99.90;;;;;;5078059;28;20172;-72
2022/01/09 11:27:54;;;;;;;1.77;0.73;;;7.70;99.90;;;;;;5063609;28;20238;-72
2022/01/09 11:30:58;;;;;;;0.75;0.60;;;7.70;99.90;;;;;;5079128;28;20631;-72
2022/01/09 11:33:38;;;;;;;0.63;0.63;;;7.80;99.90;;;;;;5071696;28;20188;-72
2022/01/09 11:36:20;;;;;;;2.03;0.65;;;7.80;99.90;;;;;;5075921;28;20283;-72
2022/01/09 11:39:12;;;;;;;0.50;0.50;;;7.60;99.90;;;;;;5076558;28;20573;-73
2022/01/09 11:41:42;;;;;;;2.00;1.20;;;7.50;99.90;;;;;;5075910;28;20508;-70
2022/01/09 11:44:11;;;;;;;2.83;1.20;;;7.30;99.90;;;;;;5076027;28;20178;-72
2022/01/09 11:46:55;;;;;;;4.97;0.68;;;7.20;99.90;;;;;;5075648;28;20268;-72
2022/01/09 11:49:21;;;;;;;0.60;0.60;;;7.10;99.90;;;;;;5076022;28;20172;-71
2022/01/09 11:51:55;;;;;;;1.02;1.02;;;7.10;99.90;;;;;;5075432;28;20215;-71
2022/01/09 11:54:22;;;;;;;2.28;1.88;;;7.10;99.90;;;;;;5075441;28;20198;-72
2022/01/09 11:56:47;;;;;;;1.38;0.88;;;7.20;99.90;;;;;;5075372;28;20191;-71
2022/01/09 11:59:19;;;;;;;0.90;0.90;;;7.30;99.90;;;;;;5075477;28;20165;-71
2022/01/09 12:01:46;;;;;;;1.98;1.88;;;7.40;99.90;;;;;;5075199;28;20239;-71
2022/01/09 12:04:47;;;;;;;2.08;1.10;;;7.50;99.90;;;;;;5056723;28;20193;-72
2022/01/09 12:07:21;;;;;;;1.52;0.80;;;7.50;99.90;;;;;;5013340;28;20635;-71
2022/01/09 12:09:48;;;;;;;2.15;2.05;;;7.50;99.90;;;;;;5048935;28;20184;-71
2022/01/09 12:12:35;;;;;;;0.50;0.50;;;7.60;99.90;;;;;;5053739;28;20177;-71
2022/01/09 12:15:05;;;;;;;1.15;0.88;;;7.60;99.90;;;;;;5055024;28;20207;-71
2022/01/09 12:17:36;;;;;;;0.63;0.60;;;7.50;99.90;;;;;;5053812;28;20203;-71
2022/01/09 12:20:11;;;;;;;1.67;0.80;;;7.50;99.90;;;;;;5055120;28;20165;-72
2022/01/09 12:22:40;;;;;;;0.50;0.50;;;7.40;99.90;;;;;;5054636;28;20173;-71
2022/01/09 12:25:24;;;;;;;1.38;1.13;;;7.40;99.90;;;;;;5055155;28;20179;-71
2022/01/09 12:27:57;;;;;;;0.60;0.60;;;7.40;99.90;;;;;;5053704;28;20200;-71
2022/01/09 12:30:41;;;;;;;0.40;0.40;;;7.40;99.90;;;;;;5055194;28;20578;-71
2022/01/09 12:33:16;;;;;;;0.93;0.93;;;7.40;99.90;;;;;;5054866;28;20173;-72
2022/01/09 12:35:47;;;;;;;2.25;1.55;;;7.50;99.90;;;;;;5055211;28;20185;-71
2022/01/09 12:38:17;;;;;;;0.60;0.60;;;7.40;99.90;;;;;;5055141;28;20197;-71
2022/01/09 12:40:44;;;;;;;2.35;0.50;;;7.40;99.90;;;;;;5055033;28;20215;-71
2022/01/09 12:43:12;;;;;;;2.40;1.45;;;7.50;99.90;;;;;;5054559;28;20242;-72
2022/01/09 12:45:44;;;;;;;1.67;0.80;;;7.40;99.90;;;;;;5055049;28;20634;-71
2022/01/09 12:48:30;;;;;;;1.00;0.90;;;7.40;99.90;;;;;;5053610;28;20721;-72
2022/01/09 12:51:06;;;;;;;1.25;1.15;;;7.30;99.90;;;;;;5054847;28;20175;-71
2022/01/09 12:53:37;;;;;;;2.15;1.00;;;7.30;99.90;;;;;;5054929;28;20176;-71
2022/01/09 12:56:32;;;;;;;0.60;0.60;;;7.30;99.90;;;;;;5054647;28;20197;-70
2022/01/09 12:59:15;;;;;;;0.85;0.85;;;7.30;99.90;;;;;;5050453;28;20256;-71
2022/01/09 13:01:47;;;;;;;1.23;1.13;;;7.20;99.90;;;;;;5054207;28;20179;-70
2022/01/09 13:04:22;;;;;;;1.05;0.95;;;7.10;99.90;;;;;;5071821;28;20223;-72